sensor_id;sensor_type;location;lat;lon;timestamp;pressure;altitude;pressure_sealevel;temperature;humidity
78488;BME280;67885;49.758;9.582;2023-05-07T00:02:08;99180.06;;;19.91;48.24
78488;BME280;67885;49.758;9.582;2023-05-07T00:04:36;99089.81;;;19.28;48.98
78488;BME280;67885;49.758;9.582;2023-05-07T00:07:04;99177.81;;;19.79;48.81
78488;BME280;67885;49.758;9.582;2023-05-07T00:09:31;99183.47;;;19.84;49.34
78488;BME280;67885;49.758;9.582;2023-05-07T00:11:57;99186.53;;;19.81;49.31
78488;BME280;67885;49.758;9.582;2023-05-07T00:14:25;99182.31;;;19.79;49.31
78488;BME280;67885;49.758;9.582;2023-05-07T00:16:51;99184.72;;;19.74;49.31
78488;BME280;67885;49.758;9.582;2023-05-07T00:19:18;99178.97;;;19.62;49.22
78488;BME280;67885;49.758;9.582;2023-05-07T00:21:46;99184.66;;;19.67;49.19
78488;BME280;67885;49.758;9.582;2023-05-07T00:24:12;99191.56;;;19.61;49.55
78488;BME280;67885;49.758;9.582;2023-05-07T00:26:39;99195.81;;;19.55;50.08
78488;BME280;67885;49.758;9.582;2023-05-07T00:29:06;99187.00;;;19.47;49.82
78488;BME280;67885;49.758;9.582;2023-05-07T00:31:32;99189.44;;;19.33;49.93
78488;BME280;67885;49.758;9.582;2023-05-07T00:33:59;99171.44;;;19.19;50.22
78488;BME280;67885;49.758;9.582;2023-05-07T00:36:25;99187.91;;;19.16;50.14
78488;BME280;67885;49.758;9.582;2023-05-07T00:38:54;99178.00;;;19.16;49.80
78488;BME280;67885;49.758;9.582;2023-05-07T00:41:21;99185.97;;;19.25;49.98
78488;BME280;67885;49.758;9.582;2023-05-07T00:43:47;99194.59;;;19.20;49.66
78488;BME280;67885;49.758;9.582;2023-05-07T00:46:18;99092.31;;;18.60;50.10
78488;BME280;67885;49.758;9.582;2023-05-07T00:48:46;99189.09;;;19.13;49.66
78488;BME280;67885;49.758;9.582;2023-05-07T00:51:13;99181.03;;;19.13;49.91
78488;BME280;67885;49.758;9.582;2023-05-07T00:53:40;99171.84;;;19.08;49.99
78488;BME280;67885;49.758;9.582;2023-05-07T00:56:08;99170.50;;;19.12;50.25
78488;BME280;67885;49.758;9.582;2023-05-07T00:58:35;99175.50;;;19.15;50.14
78488;BME280;67885;49.758;9.582;2023-05-07T01:01:02;99166.63;;;19.14;49.79
78488;BME280;67885;49.758;9.582;2023-05-07T01:03:29;99160.00;;;19.02;49.69
78488;BME280;67885;49.758;9.582;2023-05-07T01:05:58;99169.53;;;19.04;49.74
78488;BME280;67885;49.758;9.582;2023-05-07T01:08:27;99160.50;;;18.97;49.74
78488;BME280;67885;49.758;9.582;2023-05-07T01:10:56;99171.91;;;18.99;49.88
78488;BME280;67885;49.758;9.582;2023-05-07T01:13:24;99133.00;;;18.72;49.94
78488;BME280;67885;49.758;9.582;2023-05-07T01:15:51;99177.53;;;18.90;50.20
78488;BME280;67885;49.758;9.582;2023-05-07T01:18:18;99161.78;;;18.78;50.33
78488;BME280;67885;49.758;9.582;2023-05-07T01:20:45;99173.00;;;18.82;50.60
78488;BME280;67885;49.758;9.582;2023-05-07T01:23:15;99150.47;;;18.68;50.49
78488;BME280;67885;49.758;9.582;2023-05-07T01:25:41;99161.31;;;18.75;50.52
78488;BME280;67885;49.758;9.582;2023-05-07T01:28:08;99172.81;;;18.83;50.00
78488;BME280;67885;49.758;9.582;2023-05-07T01:30:36;99168.09;;;18.85;50.34
78488;BME280;67885;49.758;9.582;2023-05-07T01:33:09;99154.59;;;18.79;49.98
78488;BME280;67885;49.758;9.582;2023-05-07T01:35:41;99160.91;;;18.86;49.93
78488;BME280;67885;49.758;9.582;2023-05-07T01:38:10;99166.25;;;18.86;50.44
78488;BME280;67885;49.758;9.582;2023-05-07T01:40:39;99152.59;;;18.73;49.89
78488;BME280;67885;49.758;9.582;2023-05-07T01:43:06;99155.94;;;18.75;50.29
78488;BME280;67885;49.758;9.582;2023-05-07T01:45:34;99170.69;;;18.79;50.38
78488;BME280;67885;49.758;9.582;2023-05-07T01:48:02;99171.88;;;18.76;50.48
78488;BME280;67885;49.758;9.582;2023-05-07T01:50:29;99174.38;;;18.78;50.28
78488;BME280;67885;49.758;9.582;2023-05-07T01:52:57;99167.31;;;18.77;50.36
78488;BME280;67885;49.758;9.582;2023-05-07T01:55:23;99165.53;;;18.69;50.30
78488;BME280;67885;49.758;9.582;2023-05-07T01:57:51;99164.75;;;18.60;50.53
78488;BME280;67885;49.758;9.582;2023-05-07T02:00:19;99152.19;;;18.52;50.29
78488;BME280;67885;49.758;9.582;2023-05-07T02:02:46;99168.25;;;18.61;50.31
78488;BME280;67885;49.758;9.582;2023-05-07T02:05:12;99164.38;;;18.63;50.31
78488;BME280;67885;49.758;9.582;2023-05-07T02:07:39;99157.56;;;18.52;50.25
78488;BME280;67885;49.758;9.582;2023-05-07T02:10:06;99165.47;;;18.46;50.48
78488;BME280;67885;49.758;9.582;2023-05-07T02:12:33;99166.38;;;18.30;50.85
78488;BME280;67885;49.758;9.582;2023-05-07T02:15:01;99172.94;;;18.27;51.21
78488;BME280;67885;49.758;9.582;2023-05-07T02:17:28;99173.75;;;18.28;51.43
78488;BME280;67885;49.758;9.582;2023-05-07T02:19:57;99167.88;;;18.32;51.15
78488;BME280;67885;49.758;9.582;2023-05-07T02:22:23;99158.50;;;18.28;51.67
78488;BME280;67885;49.758;9.582;2023-05-07T02:24:50;99167.03;;;18.32;51.53
78488;BME280;67885;49.758;9.582;2023-05-07T02:27:17;99171.72;;;18.30;51.55
78488;BME280;67885;49.758;9.582;2023-05-07T02:29:43;99181.81;;;18.28;51.49
78488;BME280;67885;49.758;9.582;2023-05-07T02:32:11;99184.00;;;18.24;51.47
78488;BME280;67885;49.758;9.582;2023-05-07T02:34:38;99165.94;;;18.18;51.73
78488;BME280;67885;49.758;9.582;2023-05-07T02:37:04;99148.56;;;18.06;51.72
78488;BME280;67885;49.758;9.582;2023-05-07T02:39:31;99183.66;;;18.27;51.83
78488;BME280;67885;49.758;9.582;2023-05-07T02:41:58;99176.94;;;18.31;51.83
78488;BME280;67885;49.758;9.582;2023-05-07T02:44:24;99175.41;;;18.37;52.13
78488;BME280;67885;49.758;9.582;2023-05-07T02:46:51;99172.06;;;18.35;51.54
78488;BME280;67885;49.758;9.582;2023-05-07T02:49:19;99178.94;;;18.29;51.34
78488;BME280;67885;49.758;9.582;2023-05-07T02:51:46;99163.94;;;18.12;52.35
78488;BME280;67885;49.758;9.582;2023-05-07T02:54:12;99158.59;;;18.03;52.51
78488;BME280;67885;49.758;9.582;2023-05-07T02:56:39;99176.16;;;18.14;52.75
78488;BME280;67885;49.758;9.582;2023-05-07T02:59:05;99139.50;;;17.90;53.28
78488;BME280;67885;49.758;9.582;2023-05-07T03:01:32;99181.69;;;18.13;52.81
78488;BME280;67885;49.758;9.582;2023-05-07T03:03:58;99193.59;;;18.10;53.02
78488;BME280;67885;49.758;9.582;2023-05-07T03:06:26;99186.22;;;18.04;53.30
78488;BME280;67885;49.758;9.582;2023-05-07T03:08:53;99191.09;;;18.00;54.00
78488;BME280;67885;49.758;9.582;2023-05-07T03:11:20;99211.19;;;18.05;53.54
78488;BME280;67885;49.758;9.582;2023-05-07T03:13:46;99168.81;;;18.00;53.21
78488;BME280;67885;49.758;9.582;2023-05-07T03:16:15;99186.38;;;18.11;53.04
78488;BME280;67885;49.758;9.582;2023-05-07T03:18:42;99185.88;;;18.15;52.94
78488;BME280;67885;49.758;9.582;2023-05-07T03:21:08;99185.69;;;18.17;52.85
78488;BME280;67885;49.758;9.582;2023-05-07T03:23:36;99176.00;;;18.08;52.80
78488;BME280;67885;49.758;9.582;2023-05-07T03:26:03;99181.19;;;18.09;52.66
78488;BME280;67885;49.758;9.582;2023-05-07T03:28:30;99167.66;;;17.94;52.71
78488;BME280;67885;49.758;9.582;2023-05-07T03:30:57;99171.34;;;17.93;52.92
78488;BME280;67885;49.758;9.582;2023-05-07T03:33:23;99157.13;;;17.76;52.68
78488;BME280;67885;49.758;9.582;2023-05-07T03:35:50;99202.31;;;17.96;52.80
78488;BME280;67885;49.758;9.582;2023-05-07T03:38:16;99189.28;;;17.93;52.46
78488;BME280;67885;49.758;9.582;2023-05-07T03:40:44;99170.19;;;17.79;52.66
78488;BME280;67885;49.758;9.582;2023-05-07T03:43:11;99191.59;;;17.87;53.13
78488;BME280;67885;49.758;9.582;2023-05-07T03:45:38;99169.84;;;17.82;52.95
78488;BME280;67885;49.758;9.582;2023-05-07T03:48:04;99173.88;;;17.86;52.68
78488;BME280;67885;49.758;9.582;2023-05-07T03:50:31;99141.91;;;17.68;52.39
78488;BME280;67885;49.758;9.582;2023-05-07T03:52:57;99179.06;;;17.88;51.96
78488;BME280;67885;49.758;9.582;2023-05-07T03:55:24;99182.38;;;17.90;52.21
78488;BME280;67885;49.758;9.582;2023-05-07T03:57:52;99171.34;;;17.85;52.08
78488;BME280;67885;49.758;9.582;2023-05-07T04:00:19;99104.28;;;17.45;51.92
78488;BME280;67885;49.758;9.582;2023-05-07T04:02:46;99195.63;;;17.92;51.82
78488;BME280;67885;49.758;9.582;2023-05-07T04:05:14;99173.41;;;17.66;52.08
78488;BME280;67885;49.758;9.582;2023-05-07T04:07:41;99190.44;;;17.82;52.25
78488;BME280;67885;49.758;9.582;2023-05-07T04:10:08;99193.78;;;17.84;52.01
78488;BME280;67885;49.758;9.582;2023-05-07T04:12:35;99182.41;;;17.82;51.56
78488;BME280;67885;49.758;9.582;2023-05-07T04:15:03;99194.63;;;17.93;51.82
78488;BME280;67885;49.758;9.582;2023-05-07T04:17:30;99182.75;;;17.95;51.45
78488;BME280;67885;49.758;9.582;2023-05-07T04:19:57;99196.94;;;18.04;51.89
78488;BME280;67885;49.758;9.582;2023-05-07T04:22:23;99194.59;;;18.09;51.14
78488;BME280;67885;49.758;9.582;2023-05-07T04:24:50;99172.19;;;17.94;51.39
78488;BME280;67885;49.758;9.582;2023-05-07T04:27:16;99195.44;;;18.10;51.15
78488;BME280;67885;49.758;9.582;2023-05-07T04:29:43;99196.44;;;18.09;51.49
78488;BME280;67885;49.758;9.582;2023-05-07T04:32:13;99204.16;;;18.03;51.73
78488;BME280;67885;49.758;9.582;2023-05-07T04:34:40;99204.69;;;17.99;52.06
78488;BME280;67885;49.758;9.582;2023-05-07T04:37:07;99203.50;;;18.10;51.69
78488;BME280;67885;49.758;9.582;2023-05-07T04:39:33;99198.91;;;18.27;51.83
78488;BME280;67885;49.758;9.582;2023-05-07T04:42:00;99177.63;;;18.25;51.38
78488;BME280;67885;49.758;9.582;2023-05-07T04:44:28;99207.19;;;18.48;50.60
78488;BME280;67885;49.758;9.582;2023-05-07T04:46:56;99203.34;;;18.51;51.00
78488;BME280;67885;49.758;9.582;2023-05-07T04:49:24;99188.78;;;18.45;51.14
78488;BME280;67885;49.758;9.582;2023-05-07T04:51:50;99209.66;;;18.58;50.34
78488;BME280;67885;49.758;9.582;2023-05-07T04:54:17;99122.44;;;17.99;51.59
78488;BME280;67885;49.758;9.582;2023-05-07T04:56:44;99197.88;;;18.36;52.13
78488;BME280;67885;49.758;9.582;2023-05-07T04:59:11;99196.19;;;18.35;51.84
78488;BME280;67885;49.758;9.582;2023-05-07T05:01:37;99212.78;;;18.39;51.99
78488;BME280;67885;49.758;9.582;2023-05-07T05:04:04;99209.41;;;18.36;52.64
78488;BME280;67885;49.758;9.582;2023-05-07T05:06:32;99221.00;;;18.37;52.49
78488;BME280;67885;49.758;9.582;2023-05-07T05:08:58;99189.06;;;18.02;52.98
78488;BME280;67885;49.758;9.582;2023-05-07T05:11:25;99230.25;;;18.26;52.75
78488;BME280;67885;49.758;9.582;2023-05-07T05:13:51;99224.19;;;18.24;53.24
78488;BME280;67885;49.758;9.582;2023-05-07T05:16:18;99223.88;;;18.19;53.19
78488;BME280;67885;49.758;9.582;2023-05-07T05:18:44;99237.94;;;18.29;53.53
78488;BME280;67885;49.758;9.582;2023-05-07T05:21:11;99242.13;;;18.32;53.64
78488;BME280;67885;49.758;9.582;2023-05-07T05:23:39;99231.75;;;18.29;53.91
78488;BME280;67885;49.758;9.582;2023-05-07T05:26:06;99249.13;;;18.41;53.51
78488;BME280;67885;49.758;9.582;2023-05-07T05:28:32;99246.59;;;18.48;53.10
78488;BME280;67885;49.758;9.582;2023-05-07T05:30:59;99252.09;;;18.54;52.34
78488;BME280;67885;49.758;9.582;2023-05-07T05:33:25;99247.22;;;18.58;52.71
78488;BME280;67885;49.758;9.582;2023-05-07T05:35:53;99248.53;;;18.62;52.42
78488;BME280;67885;49.758;9.582;2023-05-07T05:38:20;99236.81;;;18.63;52.53
78488;BME280;67885;49.758;9.582;2023-05-07T05:40:48;99248.50;;;18.70;52.32
78488;BME280;67885;49.758;9.582;2023-05-07T05:43:15;99239.47;;;18.63;52.26
78488;BME280;67885;49.758;9.582;2023-05-07T05:45:41;99247.03;;;18.68;52.34
78488;BME280;67885;49.758;9.582;2023-05-07T05:48:08;99240.19;;;18.57;53.16
78488;BME280;67885;49.758;9.582;2023-05-07T05:50:34;99248.53;;;18.62;53.10
78488;BME280;67885;49.758;9.582;2023-05-07T05:53:02;99235.16;;;18.54;53.11
78488;BME280;67885;49.758;9.582;2023-05-07T05:55:29;99230.53;;;18.40;52.48
78488;BME280;67885;49.758;9.582;2023-05-07T05:57:59;99247.38;;;18.57;52.72
78488;BME280;67885;49.758;9.582;2023-05-07T06:00:25;99253.56;;;18.65;52.10
78488;BME280;67885;49.758;9.582;2023-05-07T06:02:52;99247.88;;;18.60;51.40
78488;BME280;67885;49.758;9.582;2023-05-07T06:05:19;99236.97;;;18.62;52.11
78488;BME280;67885;49.758;9.582;2023-05-07T06:07:45;99256.53;;;18.70;51.17
78488;BME280;67885;49.758;9.582;2023-05-07T06:10:12;99252.88;;;18.71;51.64
78488;BME280;67885;49.758;9.582;2023-05-07T06:12:39;99253.53;;;18.74;51.46
78488;BME280;67885;49.758;9.582;2023-05-07T06:15:08;99255.88;;;18.77;51.69
78488;BME280;67885;49.758;9.582;2023-05-07T06:17:34;99262.38;;;18.82;51.57
78488;BME280;67885;49.758;9.582;2023-05-07T06:20:01;99268.25;;;18.86;51.51
78488;BME280;67885;49.758;9.582;2023-05-07T06:22:28;99236.44;;;18.75;52.08
78488;BME280;67885;49.758;9.582;2023-05-07T06:24:54;99258.50;;;18.85;52.02
78488;BME280;67885;49.758;9.582;2023-05-07T06:27:21;99267.22;;;18.95;51.89
78488;BME280;67885;49.758;9.582;2023-05-07T06:29:48;99273.91;;;18.99;51.48
78488;BME280;67885;49.758;9.582;2023-05-07T06:32:16;99275.22;;;19.03;51.74
78488;BME280;67885;49.758;9.582;2023-05-07T06:34:43;99276.72;;;19.06;51.68
78488;BME280;67885;49.758;9.582;2023-05-07T06:37:09;99283.41;;;19.10;50.99
78488;BME280;67885;49.758;9.582;2023-05-07T06:39:36;99276.19;;;19.11;51.22
78488;BME280;67885;49.758;9.582;2023-05-07T06:42:03;99273.31;;;19.12;51.44
78488;BME280;67885;49.758;9.582;2023-05-07T06:44:30;99280.00;;;19.16;51.54
78488;BME280;67885;49.758;9.582;2023-05-07T06:46:57;99278.19;;;19.17;51.96
78488;BME280;67885;49.758;9.582;2023-05-07T06:49:25;99280.31;;;19.21;51.29
78488;BME280;67885;49.758;9.582;2023-05-07T06:51:51;99270.25;;;19.24;51.05
78488;BME280;67885;49.758;9.582;2023-05-07T06:54:18;99229.97;;;19.00;51.23
78488;BME280;67885;49.758;9.582;2023-05-07T06:56:45;99266.66;;;19.31;51.58
78488;BME280;67885;49.758;9.582;2023-05-07T06:59:12;99219.22;;;19.00;50.92
78488;BME280;67885;49.758;9.582;2023-05-07T07:01:38;99260.28;;;19.32;51.14
78488;BME280;67885;49.758;9.582;2023-05-07T07:04:05;99259.28;;;19.33;50.77
78488;BME280;67885;49.758;9.582;2023-05-07T07:06:33;99271.63;;;19.43;51.02
78488;BME280;67885;49.758;9.582;2023-05-07T07:09:00;99278.50;;;19.45;51.20
78488;BME280;67885;49.758;9.582;2023-05-07T07:11:26;99265.72;;;19.47;50.88
78488;BME280;67885;49.758;9.582;2023-05-07T07:13:53;99267.69;;;19.53;50.52
78488;BME280;67885;49.758;9.582;2023-05-07T07:16:20;99263.81;;;19.56;50.57
78488;BME280;67885;49.758;9.582;2023-05-07T07:18:47;99254.78;;;19.49;50.87
78488;BME280;67885;49.758;9.582;2023-05-07T07:21:13;99271.50;;;19.59;50.92
78488;BME280;67885;49.758;9.582;2023-05-07T07:23:41;99270.63;;;19.67;51.46
78488;BME280;67885;49.758;9.582;2023-05-07T07:26:08;99256.44;;;19.73;50.87
78488;BME280;67885;49.758;9.582;2023-05-07T07:28:35;99256.44;;;19.73;50.48
78488;BME280;67885;49.758;9.582;2023-05-07T07:31:01;99272.16;;;19.84;49.77
78488;BME280;67885;49.758;9.582;2023-05-07T07:33:28;99274.22;;;19.82;49.23
78488;BME280;67885;49.758;9.582;2023-05-07T07:35:55;99271.88;;;19.79;49.13
78488;BME280;67885;49.758;9.582;2023-05-07T07:38:22;99265.41;;;19.65;49.16
78488;BME280;67885;49.758;9.582;2023-05-07T07:40:50;99273.06;;;19.77;48.10
78488;BME280;67885;49.758;9.582;2023-05-07T07:43:16;99278.38;;;19.85;48.48
78488;BME280;67885;49.758;9.582;2023-05-07T07:45:43;99281.91;;;19.85;48.27
78488;BME280;67885;49.758;9.582;2023-05-07T07:48:11;99280.22;;;19.84;48.71
78488;BME280;67885;49.758;9.582;2023-05-07T07:50:38;99275.34;;;19.88;48.55
78488;BME280;67885;49.758;9.582;2023-05-07T07:53:05;99271.06;;;19.94;48.74
78488;BME280;67885;49.758;9.582;2023-05-07T07:55:31;99269.69;;;19.98;47.45
78488;BME280;67885;49.758;9.582;2023-05-07T07:57:59;99263.00;;;19.94;47.91
78488;BME280;67885;49.758;9.582;2023-05-07T08:00:26;99270.25;;;19.93;48.14
78488;BME280;67885;49.758;9.582;2023-05-07T08:02:52;99271.94;;;19.94;48.54
78488;BME280;67885;49.758;9.582;2023-05-07T08:05:19;99272.19;;;19.99;48.59
78488;BME280;67885;49.758;9.582;2023-05-07T08:07:47;99270.09;;;20.10;48.11
78488;BME280;67885;49.758;9.582;2023-05-07T08:10:17;99253.97;;;20.10;48.40
78488;BME280;67885;49.758;9.582;2023-05-07T08:12:46;99275.31;;;20.26;47.88
78488;BME280;67885;49.758;9.582;2023-05-07T08:15:15;99275.22;;;20.34;47.09
78488;BME280;67885;49.758;9.582;2023-05-07T08:17:41;99286.47;;;20.53;46.87
78488;BME280;67885;49.758;9.582;2023-05-07T08:20:09;99240.91;;;20.36;47.33
78488;BME280;67885;49.758;9.582;2023-05-07T08:22:36;99288.66;;;20.64;46.89
78488;BME280;67885;49.758;9.582;2023-05-07T08:25:03;99274.69;;;20.69;46.61
78488;BME280;67885;49.758;9.582;2023-05-07T08:27:30;99276.19;;;20.71;46.51
78488;BME280;67885;49.758;9.582;2023-05-07T08:29:56;99283.97;;;20.81;47.24
78488;BME280;67885;49.758;9.582;2023-05-07T08:32:24;99275.31;;;20.86;46.51
78488;BME280;67885;49.758;9.582;2023-05-07T08:34:51;99282.84;;;20.91;46.81
78488;BME280;67885;49.758;9.582;2023-05-07T08:37:18;99278.56;;;20.96;47.16
78488;BME280;67885;49.758;9.582;2023-05-07T08:39:44;99279.28;;;21.05;46.05
78488;BME280;67885;49.758;9.582;2023-05-07T08:42:12;99275.84;;;21.11;46.24
78488;BME280;67885;49.758;9.582;2023-05-07T08:44:45;99269.94;;;21.22;46.75
78488;BME280;67885;49.758;9.582;2023-05-07T08:47:12;99283.88;;;21.26;45.48
78488;BME280;67885;49.758;9.582;2023-05-07T08:49:40;99295.03;;;21.23;45.80
78488;BME280;67885;49.758;9.582;2023-05-07T08:52:07;99282.72;;;21.14;45.64
78488;BME280;67885;49.758;9.582;2023-05-07T08:54:33;99295.78;;;21.17;45.80
78488;BME280;67885;49.758;9.582;2023-05-07T08:57:00;99304.13;;;21.22;46.35
78488;BME280;67885;49.758;9.582;2023-05-07T08:59:28;99306.72;;;21.30;46.10
78488;BME280;67885;49.758;9.582;2023-05-07T09:01:55;99286.66;;;21.33;45.54
78488;BME280;67885;49.758;9.582;2023-05-07T09:04:22;99291.53;;;21.44;44.56
78488;BME280;67885;49.758;9.582;2023-05-07T09:06:50;99291.38;;;21.52;45.60
78488;BME280;67885;49.758;9.582;2023-05-07T09:09:17;99281.00;;;21.49;44.99
78488;BME280;67885;49.758;9.582;2023-05-07T09:11:44;99291.78;;;21.49;45.40
78488;BME280;67885;49.758;9.582;2023-05-07T09:14:10;99271.38;;;21.40;45.14
78488;BME280;67885;49.758;9.582;2023-05-07T09:16:37;99279.19;;;21.35;45.65
78488;BME280;67885;49.758;9.582;2023-05-07T09:19:04;99278.63;;;21.39;45.48
78488;BME280;67885;49.758;9.582;2023-05-07T09:21:30;99284.09;;;21.46;45.19
78488;BME280;67885;49.758;9.582;2023-05-07T09:23:58;99289.38;;;21.54;46.19
78488;BME280;67885;49.758;9.582;2023-05-07T09:26:25;99263.56;;;21.45;45.39
78488;BME280;67885;49.758;9.582;2023-05-07T09:28:53;99281.44;;;21.68;46.15
78488;BME280;67885;49.758;9.582;2023-05-07T09:31:20;99278.41;;;21.78;45.78
78488;BME280;67885;49.758;9.582;2023-05-07T09:33:48;99271.59;;;21.82;45.85
78488;BME280;67885;49.758;9.582;2023-05-07T09:36:15;99270.44;;;21.91;45.13
78488;BME280;67885;49.758;9.582;2023-05-07T09:38:42;99278.63;;;22.04;44.34
78488;BME280;67885;49.758;9.582;2023-05-07T09:41:12;99169.59;;;21.35;43.97
78488;BME280;67885;49.758;9.582;2023-05-07T09:43:39;99279.50;;;22.12;45.03
78488;BME280;67885;49.758;9.582;2023-05-07T09:46:08;99275.22;;;22.24;44.64
78488;BME280;67885;49.758;9.582;2023-05-07T09:48:39;99258.25;;;22.30;46.10
78488;BME280;67885;49.758;9.582;2023-05-07T09:51:21;99282.56;;;22.65;43.87
78488;BME280;67885;49.758;9.582;2023-05-07T09:53:53;99285.53;;;22.77;42.90
78488;BME280;67885;49.758;9.582;2023-05-07T09:56:21;99280.84;;;22.93;42.98
78488;BME280;67885;49.758;9.582;2023-05-07T09:58:51;99275.63;;;22.91;43.12
78488;BME280;67885;49.758;9.582;2023-05-07T10:01:19;99275.25;;;23.01;42.05
78488;BME280;67885;49.758;9.582;2023-05-07T10:03:49;99275.66;;;23.04;43.34
78488;BME280;67885;49.758;9.582;2023-05-07T10:06:17;99272.16;;;23.11;42.57
78488;BME280;67885;49.758;9.582;2023-05-07T10:08:44;99275.50;;;23.13;43.49
78488;BME280;67885;49.758;9.582;2023-05-07T10:11:11;99282.41;;;23.22;41.88
78488;BME280;67885;49.758;9.582;2023-05-07T10:13:40;99277.03;;;23.29;41.59
78488;BME280;67885;49.758;9.582;2023-05-07T10:16:07;99268.50;;;23.38;42.13
78488;BME280;67885;49.758;9.582;2023-05-07T10:18:34;99261.03;;;23.40;42.09
78488;BME280;67885;49.758;9.582;2023-05-07T10:21:07;99251.50;;;23.51;41.81
78488;BME280;67885;49.758;9.582;2023-05-07T10:23:34;99255.03;;;23.58;42.68
78488;BME280;67885;49.758;9.582;2023-05-07T10:26:03;99242.75;;;23.49;41.04
78488;BME280;67885;49.758;9.582;2023-05-07T10:28:36;99249.59;;;23.45;41.55
78488;BME280;67885;49.758;9.582;2023-05-07T10:31:23;99274.59;;;23.61;42.19
78488;BME280;67885;49.758;9.582;2023-05-07T10:33:56;99258.38;;;23.67;41.17
78488;BME280;67885;49.758;9.582;2023-05-07T10:36:26;99257.53;;;23.73;42.50
78488;BME280;67885;49.758;9.582;2023-05-07T10:38:53;99220.31;;;23.55;41.89
78488;BME280;67885;49.758;9.582;2023-05-07T10:41:22;99241.94;;;23.82;41.79
78488;BME280;67885;49.758;9.582;2023-05-07T10:43:49;99229.69;;;23.80;41.57
78488;BME280;67885;49.758;9.582;2023-05-07T10:46:18;99249.84;;;23.84;41.74
78488;BME280;67885;49.758;9.582;2023-05-07T10:49:07;99256.09;;;23.78;41.40
78488;BME280;67885;49.758;9.582;2023-05-07T10:51:34;99252.78;;;23.76;42.01
78488;BME280;67885;49.758;9.582;2023-05-07T10:54:21;99254.66;;;23.88;42.74
78488;BME280;67885;49.758;9.582;2023-05-07T10:56:49;99215.94;;;23.81;41.75
78488;BME280;67885;49.758;9.582;2023-05-07T10:59:34;99234.03;;;23.87;39.99
78488;BME280;67885;49.758;9.582;2023-05-07T11:02:09;99255.09;;;23.99;42.14
78488;BME280;67885;49.758;9.582;2023-05-07T11:04:37;99245.50;;;24.03;41.41
78488;BME280;67885;49.758;9.582;2023-05-07T11:07:26;99253.19;;;24.06;41.66
78488;BME280;67885;49.758;9.582;2023-05-07T11:10:01;99248.59;;;24.13;41.04
78488;BME280;67885;49.758;9.582;2023-05-07T11:12:52;99238.81;;;24.19;41.12
78488;BME280;67885;49.758;9.582;2023-05-07T11:15:39;99249.81;;;24.31;40.78
78488;BME280;67885;49.758;9.582;2023-05-07T11:18:10;99213.63;;;24.18;42.01
78488;BME280;67885;49.758;9.582;2023-05-07T11:20:58;99241.06;;;24.49;41.19
78488;BME280;67885;49.758;9.582;2023-05-07T11:23:56;99233.72;;;24.56;41.07
78488;BME280;67885;49.758;9.582;2023-05-07T11:26:24;99226.22;;;24.58;40.44
78488;BME280;67885;49.758;9.582;2023-05-07T11:28:52;99224.34;;;24.65;40.73
78488;BME280;67885;49.758;9.582;2023-05-07T11:31:26;99230.81;;;24.64;40.38
78488;BME280;67885;49.758;9.582;2023-05-07T11:33:55;99207.25;;;24.65;40.01
78488;BME280;67885;49.758;9.582;2023-05-07T11:36:23;99223.03;;;24.81;40.24
78488;BME280;67885;49.758;9.582;2023-05-07T11:38:50;99231.31;;;24.86;39.29
78488;BME280;67885;49.758;9.582;2023-05-07T11:41:17;99216.75;;;24.87;39.10
78488;BME280;67885;49.758;9.582;2023-05-07T11:43:55;99211.72;;;24.91;39.92
78488;BME280;67885;49.758;9.582;2023-05-07T11:46:22;99226.47;;;25.02;39.80
78488;BME280;67885;49.758;9.582;2023-05-07T11:48:49;99210.78;;;25.11;40.08
78488;BME280;67885;49.758;9.582;2023-05-07T11:51:21;99208.66;;;25.19;39.09
78488;BME280;67885;49.758;9.582;2023-05-07T11:53:48;99181.63;;;25.06;39.49
78488;BME280;67885;49.758;9.582;2023-05-07T11:56:17;99215.25;;;25.37;38.97
78488;BME280;67885;49.758;9.582;2023-05-07T11:58:45;99219.00;;;25.36;38.69
78488;BME280;67885;49.758;9.582;2023-05-07T12:01:13;99179.94;;;25.12;37.71
78488;BME280;67885;49.758;9.582;2023-05-07T12:03:42;99203.16;;;25.33;38.10
78488;BME280;67885;49.758;9.582;2023-05-07T12:06:10;99215.25;;;25.30;38.50
78488;BME280;67885;49.758;9.582;2023-05-07T12:08:40;99195.88;;;25.33;37.26
78488;BME280;67885;49.758;9.582;2023-05-07T12:11:09;99162.94;;;25.23;38.72
78488;BME280;67885;49.758;9.582;2023-05-07T12:13:37;99165.19;;;25.39;38.46
78488;BME280;67885;49.758;9.582;2023-05-07T12:16:05;99193.66;;;25.74;38.50
78488;BME280;67885;49.758;9.582;2023-05-07T12:18:33;99197.31;;;25.86;38.52
78488;BME280;67885;49.758;9.582;2023-05-07T12:21:01;99194.94;;;25.97;38.28
78488;BME280;67885;49.758;9.582;2023-05-07T12:23:28;99195.03;;;26.08;38.08
78488;BME280;67885;49.758;9.582;2023-05-07T12:25:56;99184.78;;;26.11;38.10
78488;BME280;67885;49.758;9.582;2023-05-07T12:28:23;99193.44;;;26.19;37.18
78488;BME280;67885;49.758;9.582;2023-05-07T12:30:51;99182.06;;;26.11;37.51
78488;BME280;67885;49.758;9.582;2023-05-07T12:33:24;99172.09;;;26.04;36.62
78488;BME280;67885;49.758;9.582;2023-05-07T12:35:53;99187.03;;;26.14;36.36
78488;BME280;67885;49.758;9.582;2023-05-07T12:38:20;99185.19;;;26.14;36.82
78488;BME280;67885;49.758;9.582;2023-05-07T12:40:49;99182.59;;;26.19;37.36
78488;BME280;67885;49.758;9.582;2023-05-07T12:43:18;99126.31;;;25.89;38.02
78488;BME280;67885;49.758;9.582;2023-05-07T12:45:47;99180.03;;;26.24;36.89
78488;BME280;67885;49.758;9.582;2023-05-07T12:48:14;99185.41;;;26.13;36.52
78488;BME280;67885;49.758;9.582;2023-05-07T12:50:41;99172.25;;;26.09;36.37
78488;BME280;67885;49.758;9.582;2023-05-07T12:53:11;99168.50;;;26.11;36.67
78488;BME280;67885;49.758;9.582;2023-05-07T12:55:42;99171.13;;;26.17;36.08
78488;BME280;67885;49.758;9.582;2023-05-07T12:58:15;99169.88;;;26.20;36.67
78488;BME280;67885;49.758;9.582;2023-05-07T13:00:44;99175.28;;;26.20;36.24
78488;BME280;67885;49.758;9.582;2023-05-07T13:03:11;99171.06;;;26.24;36.25
78488;BME280;67885;49.758;9.582;2023-05-07T13:05:39;99173.72;;;26.31;35.63